Terminal Aerodrome Forecast
Issued by NWS St Louis, MO

Current Version | Previous Version | Text Only | Print | Product List | Glossary On
Versions: 1 2 3 4 5 6 7 8 9 10 11 12 13 14 15 16 17 18 19 20 21 22 23 24 25 26 27 28 29 30
000
FTUS43 KLSX 280242 AAD
TAFSTL
TAF AMD
KSTL 280242Z 2803/2906 VRB04KT P6SM FEW070 BKN150
     FM280900 VRB04KT 5SM BR BKN020
     FM281400 27007KT P6SM SCT030 BKN120
     FM290000 29008KT P6SM SCT250=

USA.gov is the U.S. government's official web portal to all federal, state and local government web resources and services.